createdAt,value
2022-12-20T08:32:34.115Z,44.74
2022-12-20T08:32:45.456Z,44.50
2022-12-20T08:32:57.031Z,44.21
2022-12-20T08:33:08.343Z,44.14
2022-12-20T08:33:19.900Z,44.06
2022-12-20T08:33:31.198Z,44.04
2022-12-20T08:33:42.754Z,44.00
2022-12-20T08:33:52.875Z,43.93
2022-12-20T08:34:04.435Z,43.94
2022-12-20T08:34:15.749Z,43.92
2022-12-20T08:34:27.302Z,43.93
2022-12-20T08:34:38.625Z,43.93
2022-12-20T08:34:50.179Z,43.88
2022-12-20T08:35:01.483Z,43.88
2022-12-20T08:35:13.255Z,43.88
2022-12-20T08:35:24.596Z,43.86
2022-12-20T08:35:36.172Z,43.83
2022-12-20T08:35:47.475Z,43.82
2022-12-20T08:35:59.055Z,43.83
2022-12-20T08:36:10.349Z,43.78
2022-12-20T08:36:21.909Z,43.77
2022-12-20T08:36:33.219Z,43.76
2022-12-20T08:36:44.779Z,43.75
2022-12-20T08:36:56.088Z,43.75
2022-12-20T08:37:14.364Z,43.74
2022-12-20T08:37:19.600Z,43.83
2022-12-20T08:37:30.909Z,43.78
2022-12-20T08:37:42.505Z,43.73
2022-12-20T08:37:53.792Z,43.68
2022-12-20T08:38:05.357Z,43.68
2022-12-20T08:38:16.725Z,43.69
2022-12-20T08:38:28.284Z,43.67
2022-12-20T08:38:39.581Z,43.68
2022-12-20T08:38:51.133Z,43.65
2022-12-20T08:39:02.444Z,43.62
2022-12-20T08:39:13.996Z,43.64
2022-12-20T08:39:25.310Z,43.61
2022-12-20T08:39:36.889Z,43.62
2022-12-20T08:39:48.221Z,43.62
2022-12-20T08:39:59.778Z,43.60
2022-12-20T08:40:11.089Z,43.59
2022-12-20T08:40:22.653Z,43.60
2022-12-20T08:40:33.941Z,43.57
2022-12-20T08:40:45.490Z,43.57
2022-12-20T08:40:56.794Z,43.56
2022-12-20T08:41:08.351Z,43.56
2022-12-20T08:41:19.668Z,43.55
2022-12-20T08:41:31.239Z,43.57
2022-12-20T08:41:42.524Z,43.55
2022-12-20T08:41:54.083Z,43.51
2022-12-20T08:42:05.371Z,43.52
2022-12-20T08:42:16.920Z,43.51
2022-12-20T08:42:28.210Z,43.51
2022-12-20T08:42:38.303Z,43.55
2022-12-20T08:42:49.899Z,43.52
2022-12-20T08:43:05.166Z,43.50
2022-12-20T08:43:13.112Z,43.64
2022-12-20T08:43:24.407Z,43.58
2022-12-20T08:43:35.957Z,43.54
2022-12-20T08:43:47.246Z,43.48
2022-12-20T08:43:58.795Z,43.50
2022-12-20T08:44:10.096Z,43.49
2022-12-20T08:44:21.652Z,43.44
2022-12-20T08:44:32.952Z,43.46
2022-12-20T08:44:44.512Z,43.41
2022-12-20T08:44:55.828Z,43.46
2022-12-20T08:45:07.394Z,43.47
2022-12-20T08:45:18.694Z,43.44
2022-12-20T08:45:30.236Z,43.43
2022-12-20T08:45:41.606Z,43.42
2022-12-20T08:45:53.261Z,43.41
2022-12-20T08:46:04.666Z,43.43
2022-12-20T08:46:16.315Z,43.40
2022-12-20T08:46:27.832Z,43.44
2022-12-20T08:46:39.532Z,43.42
2022-12-20T08:46:50.848Z,43.41
2022-12-20T08:47:02.418Z,43.40
2022-12-20T08:47:13.705Z,43.41
2022-12-20T08:47:25.254Z,43.39
2022-12-20T08:47:36.579Z,43.38
2022-12-20T08:47:48.135Z,43.39
2022-12-20T08:47:59.477Z,43.38
2022-12-20T08:48:11.040Z,43.37
2022-12-20T08:48:22.337Z,43.37
2022-12-20T08:48:33.908Z,43.36
2022-12-20T08:48:45.214Z,43.37
2022-12-20T08:48:56.781Z,43.35
2022-12-20T08:49:08.079Z,43.38
2022-12-20T08:49:19.623Z,43.36
2022-12-20T08:49:30.912Z,43.34
2022-12-20T08:49:47.157Z,43.34
2022-12-20T08:49:54.412Z,43.42
2022-12-20T08:50:05.708Z,43.39
2022-12-20T08:50:17.268Z,43.33
2022-12-20T08:50:28.572Z,43.37
2022-12-20T08:50:40.122Z,43.33
2022-12-20T08:50:51.476Z,43.35
2022-12-20T08:51:03.116Z,43.32
2022-12-20T08:51:14.545Z,43.32
2022-12-20T08:51:26.280Z,43.31
2022-12-20T08:51:37.763Z,43.33
2022-12-20T08:51:49.437Z,43.31
2022-12-20T08:52:00.951Z,43.31
2022-12-20T08:52:12.543Z,43.31
2022-12-20T08:52:23.846Z,43.31
2022-12-20T08:52:35.408Z,43.29
2022-12-20T08:52:46.717Z,43.31
2022-12-20T08:52:58.297Z,43.31
2022-12-20T08:53:09.611Z,43.30
2022-12-20T08:53:21.162Z,43.28
2022-12-20T08:53:32.489Z,43.32
2022-12-20T08:53:44.059Z,43.30
2022-12-20T08:53:55.353Z,43.31
2022-12-20T08:54:06.920Z,43.28
2022-12-20T08:54:18.225Z,43.27
2022-12-20T08:54:29.803Z,43.26
2022-12-20T08:54:41.109Z,43.29
2022-12-20T08:54:52.659Z,43.28
2022-12-20T08:55:05.256Z,43.26
2022-12-20T08:55:14.706Z,43.34
2022-12-20T08:55:29.252Z,43.28
2022-12-20T08:55:36.864Z,43.33
2022-12-20T08:55:48.175Z,43.27
2022-12-20T08:55:59.728Z,43.28
2022-12-20T08:56:11.029Z,43.29
2022-12-20T08:56:22.583Z,43.28
2022-12-20T08:56:33.889Z,43.24
2022-12-20T08:56:45.444Z,43.25
2022-12-20T08:56:56.741Z,43.25
2022-12-20T08:57:08.306Z,43.26
2022-12-20T08:57:19.619Z,43.24
2022-12-20T08:57:31.234Z,43.25
2022-12-20T08:57:42.532Z,43.24
2022-12-20T08:57:54.088Z,43.24
2022-12-20T08:58:05.379Z,43.25
2022-12-20T08:58:16.991Z,43.24
2022-12-20T08:58:28.288Z,43.26
2022-12-20T08:58:40.560Z,43.27
2022-12-20T08:58:51.857Z,43.25
2022-12-20T08:59:03.420Z,43.21
2022-12-20T08:59:14.732Z,43.24
2022-12-20T08:59:26.286Z,43.23
2022-12-20T08:59:37.588Z,43.22
2022-12-20T08:59:49.144Z,43.23
2022-12-20T09:00:00.460Z,43.22
2022-12-20T09:00:12.031Z,43.22
2022-12-20T09:00:23.342Z,43.23
2022-12-20T09:00:34.903Z,43.22
2022-12-20T09:00:46.244Z,43.24
2022-12-20T09:01:01.749Z,43.24
2022-12-20T09:01:09.770Z,43.31
2022-12-20T09:01:21.195Z,43.28
2022-12-20T09:01:32.948Z,43.23
2022-12-20T09:01:44.432Z,43.21
2022-12-20T09:01:56.279Z,43.22
2022-12-20T09:02:08.020Z,43.23
2022-12-20T09:02:20.065Z,43.23
2022-12-20T09:02:32.199Z,43.18
2022-12-20T09:02:44.273Z,43.17
2022-12-20T09:02:55.813Z,43.22
2022-12-20T09:03:07.800Z,43.22
2022-12-20T09:03:19.476Z,43.23
2022-12-20T09:03:31.211Z,43.21
2022-12-20T09:03:42.669Z,43.19
2022-12-20T09:03:54.538Z,43.21
2022-12-20T09:04:05.988Z,43.21
2022-12-20T09:04:17.586Z,43.22
2022-12-20T09:04:28.889Z,43.20
2022-12-20T09:04:40.459Z,43.17
2022-12-20T09:04:51.769Z,43.17
2022-12-20T09:05:03.334Z,43.18
2022-12-20T09:05:14.665Z,43.20
2022-12-20T09:05:26.249Z,43.18
2022-12-20T09:05:37.535Z,43.21
2022-12-20T09:05:49.085Z,43.18
2022-12-20T09:06:00.370Z,43.19
2022-12-20T09:06:11.958Z,43.18
2022-12-20T09:06:23.314Z,43.20
2022-12-20T09:06:34.873Z,43.18
2022-12-20T09:06:46.172Z,43.19
2022-12-20T09:06:57.733Z,43.19
2022-12-20T09:07:09.020Z,43.18
2022-12-20T09:07:20.588Z,43.15
2022-12-20T09:07:31.904Z,43.16
2022-12-20T09:07:43.504Z,43.18
2022-12-20T09:07:54.811Z,43.16
2022-12-20T09:08:06.363Z,43.15
2022-12-20T09:08:17.653Z,43.18
2022-12-20T09:08:29.247Z,43.19
2022-12-20T09:08:40.558Z,43.16
2022-12-20T09:08:52.167Z,43.16
2022-12-20T09:09:03.479Z,43.14
2022-12-20T09:09:15.040Z,43.16
2022-12-20T09:09:26.343Z,43.15
2022-12-20T09:09:37.914Z,43.14
2022-12-20T09:09:49.237Z,43.17
2022-12-20T09:10:00.792Z,43.16
2022-12-20T09:10:12.099Z,43.16
2022-12-20T09:10:23.649Z,43.15
2022-12-20T09:10:34.933Z,43.16
2022-12-20T09:10:46.495Z,43.16
2022-12-20T09:10:57.826Z,43.15
2022-12-20T09:11:09.395Z,43.15
2022-12-20T09:11:20.692Z,43.15
2022-12-20T09:11:32.259Z,43.13
2022-12-20T09:11:43.551Z,43.14
2022-12-20T09:11:55.116Z,43.13
2022-12-20T09:12:06.439Z,43.13
2022-12-20T09:12:17.999Z,43.14
2022-12-20T09:12:29.319Z,43.12
2022-12-20T09:12:40.881Z,43.14
2022-12-20T09:12:52.212Z,43.14
2022-12-20T09:13:03.766Z,43.16
2022-12-20T09:13:15.084Z,43.13
2022-12-20T09:13:26.653Z,43.10
2022-12-20T09:13:43.676Z,43.14
2022-12-20T09:13:49.963Z,43.29
2022-12-20T09:14:01.267Z,43.22
2022-12-20T09:14:12.822Z,43.18
2022-12-20T09:14:24.114Z,43.14
2022-12-20T09:14:35.682Z,43.14
2022-12-20T09:14:46.999Z,43.16
2022-12-20T09:14:58.565Z,43.13
2022-12-20T09:15:09.874Z,43.12
2022-12-20T09:15:21.433Z,43.13
2022-12-20T09:15:32.792Z,43.11
2022-12-20T09:15:44.457Z,43.11
2022-12-20T09:15:55.850Z,43.14
2022-12-20T09:16:07.512Z,43.12
2022-12-20T09:16:19.062Z,43.15
2022-12-20T09:16:30.743Z,43.14
2022-12-20T09:16:42.108Z,43.16
2022-12-20T09:16:53.655Z,43.10
2022-12-20T09:17:04.962Z,43.10
2022-12-20T09:17:16.560Z,43.09
2022-12-20T09:17:27.845Z,43.12
2022-12-20T09:17:39.427Z,43.10
2022-12-20T09:17:50.734Z,43.11
2022-12-20T09:18:02.281Z,43.09
2022-12-20T09:18:13.576Z,43.10
2022-12-20T09:18:25.174Z,43.10
2022-12-20T09:18:36.493Z,43.12
2022-12-20T09:18:48.061Z,43.10
2022-12-20T09:19:04.984Z,43.11
2022-12-20T09:19:11.329Z,43.25
2022-12-20T09:19:22.625Z,43.17
2022-12-20T09:19:34.180Z,43.13
2022-12-20T09:19:45.491Z,43.15
2022-12-20T09:19:57.038Z,43.12
2022-12-20T09:20:08.319Z,43.10
2022-12-20T09:20:19.879Z,43.09
2022-12-20T09:20:31.176Z,43.10
2022-12-20T09:20:42.722Z,43.10
2022-12-20T09:20:54.026Z,43.10
2022-12-20T09:21:05.595Z,43.08
2022-12-20T09:21:16.896Z,43.11
2022-12-20T09:21:28.447Z,43.08
2022-12-20T09:21:39.777Z,43.08
2022-12-20T09:21:51.320Z,43.12
2022-12-20T09:22:02.612Z,43.10
2022-12-20T09:22:14.149Z,43.07
2022-12-20T09:22:25.442Z,43.05
2022-12-20T09:22:36.977Z,43.09
2022-12-20T09:22:48.267Z,43.08
2022-12-20T09:22:59.834Z,43.07
2022-12-20T09:23:11.141Z,43.08
2022-12-20T09:23:22.705Z,43.07
2022-12-20T09:23:34.008Z,43.08
2022-12-20T09:23:45.585Z,43.07
2022-12-20T09:23:56.947Z,43.08
2022-12-20T09:24:08.486Z,43.07
2022-12-20T09:24:19.788Z,43.07
2022-12-20T09:24:31.344Z,43.08
2022-12-20T09:24:42.682Z,43.08
2022-12-20T09:24:54.249Z,43.08
2022-12-20T09:25:05.566Z,43.07
2022-12-20T09:25:17.114Z,43.04
2022-12-20T09:25:28.408Z,43.03
2022-12-20T09:25:39.963Z,43.06
2022-12-20T09:25:53.963Z,43.04
2022-12-20T09:26:01.249Z,43.13
2022-12-20T09:26:12.537Z,43.10
2022-12-20T09:26:24.098Z,43.06
2022-12-20T09:26:35.488Z,43.05
2022-12-20T09:26:50.556Z,43.08
2022-12-20T09:26:58.993Z,43.13
2022-12-20T09:27:10.301Z,43.10
2022-12-20T09:27:21.863Z,43.04
2022-12-20T09:27:33.168Z,43.03
2022-12-20T09:27:44.721Z,43.06
2022-12-20T09:27:56.004Z,43.03
2022-12-20T09:28:07.579Z,43.05
2022-12-20T09:28:18.871Z,43.03
2022-12-20T09:28:30.425Z,43.04
2022-12-20T09:28:41.726Z,43.04
2022-12-20T09:28:53.309Z,43.03
2022-12-20T09:29:04.652Z,43.04
2022-12-20T09:29:22.986Z,43.04
2022-12-20T09:29:33.722Z,43.14
2022-12-20T09:29:40.053Z,43.15
2022-12-20T09:29:51.357Z,43.11
2022-12-20T09:30:02.913Z,43.07
2022-12-20T09:30:14.207Z,43.04
2022-12-20T09:30:25.758Z,43.05
2022-12-20T09:30:37.254Z,43.04
2022-12-20T09:30:48.894Z,43.03
2022-12-20T09:31:00.473Z,43.03
2022-12-20T09:31:12.141Z,43.04
2022-12-20T09:31:23.514Z,43.02
2022-12-20T09:31:35.171Z,43.00
2022-12-20T09:31:46.635Z,43.04
2022-12-20T09:31:58.204Z,43.00
2022-12-20T09:32:09.500Z,43.02
2022-12-20T09:32:21.052Z,43.02
2022-12-20T09:32:32.405Z,43.03
2022-12-20T09:32:43.971Z,43.01
2022-12-20T09:32:55.381Z,43.01
2022-12-20T09:33:10.268Z,43.01
2022-12-20T09:33:17.771Z,43.07
2022-12-20T09:33:29.076Z,43.03
2022-12-20T09:33:40.628Z,43.00
2022-12-20T09:33:51.911Z,42.99
2022-12-20T09:34:03.463Z,43.00
2022-12-20T09:34:15.092Z,43.00
2022-12-20T09:34:26.657Z,43.00
2022-12-20T09:34:37.952Z,43.02
2022-12-20T09:34:49.516Z,43.01
2022-12-20T09:35:00.815Z,43.00
2022-12-20T09:35:15.479Z,43.01
2022-12-20T09:35:24.300Z,43.10
2022-12-20T09:35:35.595Z,43.05
2022-12-20T09:35:47.151Z,43.02
2022-12-20T09:35:58.494Z,43.01
2022-12-20T09:36:10.039Z,42.97
2022-12-20T09:36:21.339Z,43.02
2022-12-20T09:36:32.911Z,43.00
2022-12-20T09:36:44.230Z,42.98
2022-12-20T09:36:55.787Z,43.00
2022-12-20T09:37:07.088Z,42.96
2022-12-20T09:37:18.648Z,42.99
2022-12-20T09:37:29.961Z,42.96
2022-12-20T09:37:41.522Z,42.96
2022-12-20T09:37:52.810Z,42.97
2022-12-20T09:38:04.351Z,42.98
2022-12-20T09:38:15.652Z,42.97
2022-12-20T09:38:27.200Z,42.98
2022-12-20T09:38:38.518Z,42.98
2022-12-20T09:38:50.070Z,43.00
2022-12-20T09:39:01.365Z,42.96
2022-12-20T09:39:12.921Z,42.99
2022-12-20T09:39:24.248Z,42.96
2022-12-20T09:39:35.802Z,42.98
2022-12-20T09:39:47.097Z,42.98
2022-12-20T09:39:58.650Z,42.96
2022-12-20T09:40:09.954Z,42.96
2022-12-20T09:40:21.589Z,42.97
2022-12-20T09:40:32.901Z,42.96
2022-12-20T09:40:44.447Z,42.98
2022-12-20T09:40:55.742Z,42.96
2022-12-20T09:41:07.301Z,42.96
2022-12-20T09:41:22.575Z,42.99
2022-12-20T09:41:30.084Z,43.12
2022-12-20T09:41:41.367Z,43.04
2022-12-20T09:41:52.910Z,42.99
2022-12-20T09:42:04.221Z,42.97
2022-12-20T09:42:15.783Z,42.98
2022-12-20T09:42:27.072Z,42.94
2022-12-20T09:42:38.627Z,42.98
2022-12-20T09:42:49.957Z,42.97
2022-12-20T09:43:01.504Z,42.96
2022-12-20T09:43:12.961Z,42.97
2022-12-20T09:43:24.524Z,42.95
2022-12-20T09:43:35.823Z,42.96
2022-12-20T09:43:47.362Z,42.95
2022-12-20T09:43:58.668Z,42.93
2022-12-20T09:44:10.228Z,42.95
2022-12-20T09:44:21.554Z,42.93
2022-12-20T09:44:33.180Z,42.92
2022-12-20T09:44:44.471Z,42.94
2022-12-20T09:44:56.017Z,42.92
2022-12-20T09:45:07.328Z,42.96
2022-12-20T09:45:18.891Z,42.93
2022-12-20T09:45:30.190Z,42.93
2022-12-20T09:45:41.734Z,42.93
2022-12-20T09:45:53.073Z,42.93
2022-12-20T09:46:04.707Z,42.91
2022-12-20T09:46:16.124Z,42.93
2022-12-20T09:46:27.784Z,42.93
2022-12-20T09:46:39.207Z,42.92
2022-12-20T09:46:50.883Z,42.91
2022-12-20T09:47:08.268Z,42.94
2022-12-20T09:47:14.233Z,43.09
2022-12-20T09:47:25.576Z,43.02
2022-12-20T09:47:37.117Z,42.97
2022-12-20T09:47:48.439Z,42.95
2022-12-20T09:48:00.040Z,42.94
2022-12-20T09:48:11.345Z,42.92
2022-12-20T09:48:22.891Z,42.91
2022-12-20T09:48:34.183Z,42.94
2022-12-20T09:48:45.741Z,42.93
2022-12-20T09:48:57.065Z,42.94
2022-12-20T09:49:08.623Z,42.92
2022-12-20T09:49:19.942Z,42.93
2022-12-20T09:49:31.501Z,42.92
2022-12-20T09:49:42.874Z,42.95
2022-12-20T09:49:54.473Z,42.88
2022-12-20T09:50:05.793Z,42.93
2022-12-20T09:50:17.337Z,42.91
2022-12-20T09:50:28.623Z,42.90
2022-12-20T09:50:40.170Z,42.90
2022-12-20T09:50:51.456Z,42.92
2022-12-20T09:51:03.016Z,42.90
2022-12-20T09:51:14.327Z,42.90
2022-12-20T09:51:25.874Z,42.90
2022-12-20T09:51:37.212Z,42.90
2022-12-20T09:51:48.814Z,42.89
2022-12-20T09:52:00.144Z,42.91
2022-12-20T09:52:11.689Z,42.90
2022-12-20T09:52:22.994Z,42.89
2022-12-20T09:52:34.565Z,42.87
2022-12-20T09:52:45.864Z,42.92
2022-12-20T09:52:57.422Z,42.87
2022-12-20T09:53:12.218Z,42.90
2022-12-20T09:53:20.644Z,43.07
2022-12-20T09:53:31.953Z,42.97
2022-12-20T09:53:43.506Z,42.93
2022-12-20T09:53:54.826Z,42.89
2022-12-20T09:54:06.397Z,42.89
2022-12-20T09:54:17.688Z,42.90
2022-12-20T09:54:29.252Z,42.88
2022-12-20T09:54:40.547Z,42.90
2022-12-20T09:54:52.155Z,42.90
2022-12-20T09:55:03.435Z,42.90
2022-12-20T09:55:14.986Z,42.87
2022-12-20T09:55:26.301Z,42.90
2022-12-20T09:55:37.891Z,42.88
2022-12-20T09:55:49.195Z,42.91
2022-12-20T09:56:00.757Z,42.89
2022-12-20T09:56:12.064Z,42.89
2022-12-20T09:56:23.616Z,42.86
2022-12-20T09:56:34.919Z,42.88
2022-12-20T09:56:46.479Z,42.88
2022-12-20T09:56:57.769Z,42.88
2022-12-20T09:57:09.312Z,42.87
2022-12-20T09:57:20.614Z,42.88
2022-12-20T09:57:32.174Z,42.90
2022-12-20T09:57:43.497Z,42.87
2022-12-20T09:57:55.054Z,42.87
2022-12-20T09:58:06.339Z,42.87
2022-12-20T09:58:17.898Z,42.85
2022-12-20T09:58:29.206Z,42.87
2022-12-20T09:58:40.760Z,42.87
2022-12-20T09:58:52.055Z,42.88
2022-12-20T09:59:03.621Z,42.88
2022-12-20T09:59:14.910Z,42.87
2022-12-20T09:59:26.455Z,42.85
2022-12-20T09:59:41.330Z,42.86
2022-12-20T09:59:50.272Z,43.01
2022-12-20T10:00:01.903Z,42.89
2022-12-20T10:00:13.218Z,42.88
2022-12-20T10:00:24.852Z,42.86
2022-12-20T10:00:36.683Z,42.89
2022-12-20T10:00:53.469Z,42.88
2022-12-20T10:01:00.220Z,42.98
2022-12-20T10:01:15.172Z,42.91
2022-12-20T10:01:25.323Z,43.05
2022-12-20T10:01:38.589Z,43.01
2022-12-20T10:01:45.558Z,43.02
2022-12-20T10:02:03.645Z,42.94
2022-12-20T10:02:35.446Z,43.07
2022-12-20T10:02:54.429Z,43.06
2022-12-20T10:02:57.009Z,43.03
2022-12-20T10:02:58.905Z,43.06
2022-12-20T10:03:06.536Z,43.05
2022-12-20T10:03:10.384Z,43.02
2022-12-20T10:03:20.085Z,42.95
2022-12-20T10:03:31.926Z,42.93
2022-12-20T10:03:43.647Z,42.94
2022-12-20T10:03:55.492Z,42.92
2022-12-20T10:04:07.236Z,42.94
2022-12-20T10:04:19.238Z,42.89
2022-12-20T10:04:31.184Z,42.85
2022-12-20T10:04:42.811Z,42.90
2022-12-20T10:04:54.657Z,42.88
2022-12-20T10:05:06.189Z,42.90
2022-12-20T10:05:18.027Z,42.88
2022-12-20T10:05:32.945Z,42.89
2022-12-20T10:05:41.934Z,43.05
2022-12-20T10:05:51.655Z,42.92
2022-12-20T10:06:03.545Z,42.92
2022-12-20T10:06:14.912Z,42.89
2022-12-20T10:06:26.470Z,42.87
2022-12-20T10:06:37.784Z,42.87
2022-12-20T10:06:49.347Z,42.86
2022-12-20T10:07:00.651Z,42.85
2022-12-20T10:07:12.218Z,42.85
2022-12-20T10:07:23.519Z,42.86
2022-12-20T10:07:35.081Z,42.86
2022-12-20T10:07:46.385Z,42.85
2022-12-20T10:07:57.956Z,42.86
2022-12-20T10:08:09.263Z,42.84
2022-12-20T10:08:20.828Z,42.82
2022-12-20T10:08:32.128Z,42.84
2022-12-20T10:08:43.712Z,42.83
2022-12-20T10:08:54.995Z,42.85
2022-12-20T10:09:06.545Z,42.84
2022-12-20T10:09:17.837Z,42.81
2022-12-20T10:09:29.437Z,42.84
2022-12-20T10:09:40.750Z,42.83
2022-12-20T10:09:52.304Z,42.86
2022-12-20T10:10:03.580Z,42.84
2022-12-20T10:10:15.183Z,42.83
2022-12-20T10:10:26.488Z,42.84
2022-12-20T10:10:38.035Z,42.81
2022-12-20T10:10:49.334Z,42.83
2022-12-20T10:11:00.877Z,42.81
2022-12-20T10:11:12.176Z,42.85
2022-12-20T10:11:23.715Z,42.82
2022-12-20T10:11:42.039Z,42.84
2022-12-20T10:11:50.818Z,43.00
2022-12-20T10:11:58.072Z,42.99
2022-12-20T10:12:09.366Z,42.91
2022-12-20T10:12:20.933Z,42.85
2022-12-20T10:12:32.212Z,42.84
2022-12-20T10:12:43.764Z,42.84
2022-12-20T10:12:55.063Z,42.80
2022-12-20T10:13:06.624Z,42.81
2022-12-20T10:13:17.917Z,42.81
2022-12-20T10:13:29.459Z,42.83
2022-12-20T10:13:40.754Z,42.82
2022-12-20T10:13:52.307Z,42.81
2022-12-20T10:14:03.593Z,42.82
2022-12-20T10:14:15.139Z,42.81
2022-12-20T10:14:26.436Z,42.79
2022-12-20T10:14:37.984Z,42.80
2022-12-20T10:14:49.284Z,42.80
2022-12-20T10:15:00.826Z,42.81
2022-12-20T10:15:12.164Z,42.81
2022-12-20T10:15:23.768Z,42.82
2022-12-20T10:15:35.160Z,42.80
2022-12-20T10:15:46.810Z,42.80
2022-12-20T10:15:58.227Z,42.80
2022-12-20T10:16:09.898Z,42.81
2022-12-20T10:16:21.312Z,42.80
2022-12-20T10:16:32.982Z,42.82
2022-12-20T10:16:44.342Z,42.82
2022-12-20T10:16:55.900Z,42.81
2022-12-20T10:17:07.183Z,42.82
2022-12-20T10:17:18.728Z,42.79
2022-12-20T10:17:32.577Z,42.78
2022-12-20T10:17:42.102Z,42.90
2022-12-20T10:17:53.657Z,42.82
2022-12-20T10:18:04.961Z,42.83
2022-12-20T10:18:16.525Z,42.80
2022-12-20T10:18:27.810Z,42.80
2022-12-20T10:18:39.370Z,42.80
2022-12-20T10:18:50.700Z,42.80
2022-12-20T10:19:02.252Z,42.82
2022-12-20T10:19:13.560Z,42.79
2022-12-20T10:19:25.117Z,42.80
2022-12-20T10:19:36.414Z,42.81
2022-12-20T10:19:47.979Z,42.80
2022-12-20T10:19:59.294Z,42.80
2022-12-20T10:20:10.839Z,42.80
2022-12-20T10:20:22.130Z,42.79
2022-12-20T10:20:33.710Z,42.80
2022-12-20T10:20:45.005Z,42.80
2022-12-20T10:20:56.547Z,42.79
2022-12-20T10:21:07.838Z,42.80
2022-12-20T10:21:19.395Z,42.80
2022-12-20T10:21:30.686Z,42.80
2022-12-20T10:21:42.243Z,42.79
2022-12-20T10:21:53.535Z,42.82
2022-12-20T10:22:05.087Z,42.80
2022-12-20T10:22:16.384Z,42.81
2022-12-20T10:22:27.932Z,42.77
2022-12-20T10:22:39.226Z,42.79
2022-12-20T10:22:50.799Z,42.79
2022-12-20T10:23:02.087Z,42.78
2022-12-20T10:23:13.632Z,42.80
2022-12-20T10:23:32.525Z,42.80
2022-12-20T10:23:36.861Z,42.96
2022-12-20T10:23:48.165Z,42.90
2022-12-20T10:23:59.751Z,42.83
2022-12-20T10:24:11.050Z,42.80
2022-12-20T10:24:22.632Z,42.77
2022-12-20T10:24:33.962Z,42.80
2022-12-20T10:24:45.523Z,42.79
2022-12-20T10:24:56.828Z,42.78
2022-12-20T10:25:08.388Z,42.79
2022-12-20T10:25:19.676Z,42.78
2022-12-20T10:25:31.226Z,42.77
2022-12-20T10:25:42.592Z,42.78
2022-12-20T10:25:54.171Z,42.79
2022-12-20T10:26:05.591Z,42.78
2022-12-20T10:26:17.200Z,42.76
2022-12-20T10:26:28.512Z,42.78
2022-12-20T10:26:40.081Z,42.78
2022-12-20T10:26:51.404Z,42.75
2022-12-20T10:27:02.979Z,42.78
2022-12-20T10:27:14.350Z,42.77
2022-12-20T10:27:25.927Z,42.79
2022-12-20T10:27:37.233Z,42.78
2022-12-20T10:27:48.777Z,42.78
2022-12-20T10:28:00.084Z,42.79
2022-12-20T10:28:11.686Z,42.80
2022-12-20T10:28:23.008Z,42.78
2022-12-20T10:28:34.563Z,42.79
2022-12-20T10:28:50.726Z,42.76
2022-12-20T10:28:57.783Z,42.92
2022-12-20T10:29:09.084Z,42.88
2022-12-20T10:29:20.659Z,42.80
2022-12-20T10:29:31.951Z,42.79
2022-12-20T10:29:43.497Z,42.78
2022-12-20T10:29:54.802Z,42.78
2022-12-20T10:30:06.358Z,42.77
2022-12-20T10:30:17.654Z,42.77
2022-12-20T10:30:29.214Z,42.78
2022-12-20T10:30:40.527Z,42.79
2022-12-20T10:30:52.153Z,42.77
2022-12-20T10:31:03.571Z,42.79
2022-12-20T10:31:15.288Z,42.78
2022-12-20T10:31:26.843Z,42.77
2022-12-20T10:31:38.542Z,42.81
2022-12-20T10:31:49.926Z,42.78
2022-12-20T10:32:01.493Z,42.77
2022-12-20T10:32:12.844Z,42.77
2022-12-20T10:32:24.410Z,42.78
2022-12-20T10:32:35.742Z,42.76
2022-12-20T10:32:47.301Z,42.78
2022-12-20T10:32:58.598Z,42.78
2022-12-20T10:33:10.154Z,42.77
2022-12-20T10:33:21.535Z,42.79
2022-12-20T10:33:33.100Z,42.75
2022-12-20T10:33:44.407Z,42.76
2022-12-20T10:33:54.448Z,42.76
2022-12-20T10:34:06.010Z,42.77
2022-12-20T10:34:17.320Z,42.77
2022-12-20T10:34:36.751Z,42.76
2022-12-20T10:34:46.698Z,42.88
2022-12-20T10:34:52.737Z,42.90
2022-12-20T10:35:04.036Z,42.83
2022-12-20T10:35:15.597Z,42.76
2022-12-20T10:35:26.923Z,42.79
2022-12-20T10:35:38.476Z,42.78
2022-12-20T10:35:49.773Z,42.78
2022-12-20T10:36:01.356Z,42.76
2022-12-20T10:36:12.640Z,42.75
2022-12-20T10:36:24.310Z,42.79
2022-12-20T10:36:35.605Z,42.75
2022-12-20T10:36:47.143Z,42.76
2022-12-20T10:36:58.429Z,42.76
2022-12-20T10:37:09.987Z,42.76
2022-12-20T10:37:21.320Z,42.79
2022-12-20T10:37:32.906Z,42.75
2022-12-20T10:38:00.033Z,42.76
2022-12-20T10:38:07.142Z,42.95
2022-12-20T10:38:09.130Z,42.93
2022-12-20T10:38:18.631Z,42.84
2022-12-20T10:38:30.191Z,42.79
2022-12-20T10:38:41.498Z,42.75
2022-12-20T10:38:53.062Z,42.76
2022-12-20T10:39:04.376Z,42.78
2022-12-20T10:39:15.934Z,42.76
2022-12-20T10:39:27.237Z,42.77
2022-12-20T10:39:38.792Z,42.74
2022-12-20T10:39:50.094Z,42.78
2022-12-20T10:40:06.938Z,42.76
2022-12-20T10:40:13.569Z,42.88
2022-12-20T10:40:39.370Z,42.79
2022-12-20T10:41:10.331Z,42.95
2022-12-20T10:41:21.894Z,42.94
2022-12-20T10:41:24.547Z,42.93
2022-12-20T10:41:35.850Z,42.83
2022-12-20T10:41:47.388Z,42.81
2022-12-20T10:41:58.685Z,42.81
2022-12-20T10:42:10.245Z,42.79
2022-12-20T10:42:21.541Z,42.81
2022-12-20T10:42:33.111Z,42.79
2022-12-20T10:42:44.445Z,42.79
2022-12-20T10:42:56.009Z,42.77
2022-12-20T10:43:07.294Z,42.77
2022-12-20T10:43:18.840Z,42.77
2022-12-20T10:43:30.141Z,42.78
2022-12-20T10:43:41.704Z,42.78
2022-12-20T10:43:53.002Z,42.75
2022-12-20T10:44:04.552Z,42.78
2022-12-20T10:44:15.862Z,42.76
2022-12-20T10:44:27.494Z,42.78
2022-12-20T10:44:38.789Z,42.76
2022-12-20T10:44:50.335Z,42.74
2022-12-20T10:45:01.630Z,42.75
2022-12-20T10:45:13.186Z,42.75
2022-12-20T10:45:24.496Z,42.73
2022-12-20T10:45:36.596Z,42.76
2022-12-20T10:45:48.252Z,42.72
2022-12-20T10:45:59.540Z,42.75
2022-12-20T10:46:11.168Z,42.75
2022-12-20T10:46:22.590Z,42.75
2022-12-20T10:46:34.262Z,42.75
2022-12-20T10:46:45.700Z,42.73
2022-12-20T10:46:57.429Z,42.77
2022-12-20T10:47:08.894Z,42.77
2022-12-20T10:47:20.491Z,42.75
2022-12-20T10:47:31.795Z,42.77
2022-12-20T10:47:43.364Z,42.78
2022-12-20T10:47:54.649Z,42.76
2022-12-20T10:48:06.242Z,42.75
2022-12-20T10:48:17.543Z,42.76
2022-12-20T10:48:29.184Z,42.78
2022-12-20T10:48:40.496Z,42.76
2022-12-20T10:48:52.055Z,42.77
2022-12-20T10:49:03.349Z,42.78
2022-12-20T10:49:14.911Z,42.77
2022-12-20T10:49:26.208Z,42.79
2022-12-20T10:49:37.767Z,42.77
2022-12-20T10:49:49.057Z,42.76
2022-12-20T10:50:00.599Z,42.77
2022-12-20T10:50:11.898Z,42.78
2022-12-20T10:50:23.457Z,42.76
2022-12-20T10:50:34.745Z,42.79
2022-12-20T10:50:46.299Z,42.76
2022-12-20T10:50:57.586Z,42.78
2022-12-20T10:51:15.137Z,42.75
2022-12-20T10:51:21.103Z,42.88
2022-12-20T10:51:32.468Z,42.82
2022-12-20T10:51:44.030Z,42.76
2022-12-20T10:51:55.325Z,42.79
2022-12-20T10:52:06.875Z,42.77
2022-12-20T10:52:18.172Z,42.77
2022-12-20T10:52:29.710Z,42.76
2022-12-20T10:52:40.993Z,42.75
2022-12-20T10:52:52.555Z,42.76
2022-12-20T10:53:03.852Z,42.76
2022-12-20T10:53:15.415Z,42.78
2022-12-20T10:53:26.701Z,42.73
2022-12-20T10:53:38.252Z,42.76
2022-12-20T10:53:49.562Z,42.77
2022-12-20T10:54:01.204Z,42.74
2022-12-20T10:54:12.550Z,42.75
2022-12-20T10:54:24.109Z,42.74
2022-12-20T10:54:35.420Z,42.76
2022-12-20T10:54:47.010Z,42.76
2022-12-20T10:54:58.305Z,42.79
2022-12-20T10:55:09.857Z,42.74
2022-12-20T10:55:21.149Z,42.78
2022-12-20T10:55:32.717Z,42.74
2022-12-20T10:55:44.041Z,42.76
2022-12-20T10:55:55.594Z,42.74
2022-12-20T10:56:06.892Z,42.75
2022-12-20T10:56:18.457Z,42.77
2022-12-20T10:56:29.772Z,42.76
2022-12-20T10:56:41.364Z,42.74
2022-12-20T10:56:52.706Z,42.75
2022-12-20T10:57:04.312Z,42.78
2022-12-20T10:57:15.613Z,42.74
2022-12-20T10:57:27.155Z,42.75
2022-12-20T10:57:38.454Z,42.76
2022-12-20T10:57:50.012Z,42.76
2022-12-20T10:58:01.326Z,42.78
2022-12-20T10:58:12.890Z,42.75
2022-12-20T10:58:24.186Z,42.76
2022-12-20T10:58:35.759Z,42.75
2022-12-20T10:58:47.078Z,42.75
2022-12-20T10:58:58.660Z,42.75
2022-12-20T10:59:09.959Z,42.75
2022-12-20T10:59:21.517Z,42.75
2022-12-20T10:59:32.835Z,42.76
2022-12-20T10:59:44.392Z,42.76
2022-12-20T10:59:55.688Z,42.74
2022-12-20T11:00:07.239Z,42.73
2022-12-20T11:00:18.551Z,42.74
2022-12-20T11:00:30.125Z,42.74